Fort Clark, North Dakota
Current Conditions -  °F | °C
As of 8:15 AM on Friday 24 Oct 2014 (Local Time) from KHZE Reporting Station
Clear Clear  
Wind Chill: 34°   Ceiling: Unl
Heat Index: 39°   Visibility: 10mi
Dew Point: 32°   Wind: 7mph
Humidity: 75%   Direction: 240°WSW
Pressure: 29.85"   Gusts: NA
Location:  47.1146°N, 101.343°W
Report Text: KHZE 241315Z AUTO 24006KT 10SM CLR 04/00 A2985 RMK AO2
Loading
Personal Weather Stations






























Interactive Weather Map
Tropical Storm Tracking
New forecast layout! Learn more

10-Day Weather Forecast

Advertisements
Track Severe Weather on mobile